Time;durP1;ratioP1;P1;durP2;ratioP2;P2;SDS_P1;SDS_P2;PMS_P1;PMS_P2;Temp;Humidity;BMP_temperature;BMP_pressure;BME280_temperature;BME280_humidity;BME280_pressure;Samples;Min_cycle;Max_cycle;Signal;HPM_P1;HPM_P2
2022/12/01 00:01:24;;;;;;;72.22;31.80;;;5.70;99.90;;;;;;5112311;28;20054;-82
2022/12/01 00:03:49;;;;;;;72.97;31.05;;;5.60;99.90;;;;;;5108460;27;20416;-82
2022/12/01 00:06:17;;;;;;;67.63;31.42;;;5.60;99.90;;;;;;5099201;28;20172;-82
2022/12/01 00:10:24;;;;;;;69.18;32.35;;;5.60;99.90;;;;;;5107846;28;20035;-83
2022/12/01 00:11:31;;;;;;;74.70;32.85;;;5.60;99.90;;;;;;5114559;28;20404;-83
2022/12/01 00:13:57;;;;;;;72.90;31.60;;;5.60;99.90;;;;;;5111767;28;20043;-81
2022/12/01 00:16:22;;;;;;;72.93;32.50;;;5.60;99.90;;;;;;5109886;28;20126;-81
2022/12/01 00:18:52;;;;;;;70.43;32.13;;;5.60;99.90;;;;;;5109848;28;20036;-81
2022/12/01 00:21:19;;;;;;;67.32;30.65;;;5.60;99.90;;;;;;5109906;28;20031;-83
2022/12/01 00:23:46;;;;;;;68.38;30.73;;;5.60;99.90;;;;;;5089048;28;20085;-82
2022/12/01 00:26:12;;;;;;;68.35;30.58;;;5.60;99.90;;;;;;5104927;28;20080;-83
2022/12/01 00:28:38;;;;;;;76.22;32.65;;;5.60;99.90;;;;;;5110441;28;20031;-83
2022/12/01 00:31:08;;;;;;;71.25;31.00;;;5.60;99.90;;;;;;5106012;28;20403;-82
2022/12/01 00:33:33;;;;;;;68.18;30.20;;;5.60;99.90;;;;;;5109998;28;20035;-82
2022/12/01 00:35:59;;;;;;;68.32;30.42;;;5.60;99.90;;;;;;5103992;28;20024;-82
2022/12/01 00:38:25;;;;;;;73.20;31.02;;;5.60;99.90;;;;;;5086109;28;20042;-82
2022/12/01 00:40:51;;;;;;;70.53;30.15;;;5.60;99.90;;;;;;5095709;28;20492;-82
2022/12/01 00:43:16;;;;;;;70.40;31.75;;;5.60;99.90;;;;;;5086951;28;20499;-82
2022/12/01 00:45:42;;;;;;;76.82;32.92;;;5.60;99.90;;;;;;5109438;28;20547;-83
2022/12/01 00:48:08;;;;;;;73.50;32.00;;;5.60;99.90;;;;;;5100809;28;20104;-82
2022/12/01 00:50:34;;;;;;;71.50;31.60;;;5.60;99.90;;;;;;5107049;28;20039;-81
2022/12/01 00:52:59;;;;;;;76.32;34.20;;;5.70;99.90;;;;;;5109247;28;20049;-83
2022/12/01 00:55:25;;;;;;;74.00;32.45;;;5.60;99.90;;;;;;5107535;28;20043;-81
2022/12/01 00:57:51;;;;;;;77.75;33.00;;;5.70;99.90;;;;;;5094610;27;20043;-81
2022/12/01 01:00:16;;;;;;;74.93;34.83;;;5.60;99.90;;;;;;5103853;27;20032;-82
2022/12/01 01:02:42;;;;;;;71.05;32.67;;;5.60;99.90;;;;;;5099020;27;20589;-83
2022/12/01 01:05:08;;;;;;;74.65;31.80;;;5.60;99.90;;;;;;5109139;27;20034;-82
2022/12/01 01:07:34;;;;;;;77.40;32.97;;;5.60;99.90;;;;;;5107892;27;20507;-83
2022/12/01 01:09:59;;;;;;;82.80;33.30;;;5.60;99.90;;;;;;5117986;27;20035;-82
2022/12/01 01:12:26;;;;;;;82.18;32.72;;;5.60;99.90;;;;;;5110243;27;20385;-82
2022/12/01 01:14:52;;;;;;;76.18;32.78;;;5.50;99.90;;;;;;5113038;27;20039;-82
2022/12/01 01:17:18;;;;;;;77.47;32.25;;;5.60;99.90;;;;;;5107522;27;20409;-81
2022/12/01 01:19:44;;;;;;;74.88;32.47;;;5.60;99.90;;;;;;5112133;27;20035;-82
2022/12/01 01:22:10;;;;;;;77.35;33.90;;;5.60;99.90;;;;;;5109904;27;20028;-82
2022/12/01 01:24:35;;;;;;;70.07;30.38;;;5.50;99.90;;;;;;5116379;27;20042;-83
2022/12/01 01:27:01;;;;;;;79.93;33.03;;;5.50;99.90;;;;;;5120003;27;20428;-82
2022/12/01 01:29:26;;;;;;;76.35;34.83;;;5.50;99.90;;;;;;5095500;27;20457;-83
2022/12/01 01:31:52;;;;;;;78.10;33.42;;;5.60;99.90;;;;;;5092151;27;20050;-81
2022/12/01 01:34:17;;;;;;;74.03;33.15;;;5.50;99.90;;;;;;5109568;27;20063;-83
2022/12/01 01:36:43;;;;;;;76.72;33.55;;;5.60;99.90;;;;;;5108777;28;20023;-82
2022/12/01 01:39:09;;;;;;;76.80;33.15;;;5.60;99.90;;;;;;5109373;27;20031;-82
2022/12/01 01:41:34;;;;;;;86.00;34.80;;;5.50;99.90;;;;;;5112165;27;20099;-81
2022/12/01 01:44:01;;;;;;;76.18;34.20;;;5.50;99.90;;;;;;5100467;28;20163;-82
2022/12/01 01:46:32;;;;;;;81.10;33.95;;;5.50;99.90;;;;;;5112905;27;20031;-82
2022/12/01 01:49:03;;;;;;;80.07;35.78;;;5.50;99.90;;;;;;5097141;27;20450;-82
2022/12/01 01:51:39;;;;;;;81.13;34.17;;;5.50;99.90;;;;;;5114936;27;20042;-83
2022/12/01 01:54:14;;;;;;;79.00;33.50;;;5.50;99.90;;;;;;5113676;27;20031;-82
2022/12/01 01:56:41;;;;;;;80.28;33.65;;;5.50;99.90;;;;;;5110670;27;20039;-82
2022/12/01 01:59:07;;;;;;;77.75;33.30;;;5.50;99.90;;;;;;5107046;27;20228;-83
2022/12/01 02:01:33;;;;;;;78.55;35.22;;;5.50;99.90;;;;;;5110519;27;20039;-81
2022/12/01 02:03:59;;;;;;;77.65;34.17;;;5.50;99.90;;;;;;5114613;27;20428;-82
2022/12/01 02:06:25;;;;;;;75.80;32.63;;;5.50;99.90;;;;;;5112950;27;20067;-83
2022/12/01 02:08:51;;;;;;;76.47;33.67;;;5.50;99.90;;;;;;5105396;28;20508;-81
2022/12/01 02:11:49;;;;;;;79.13;33.80;;;5.50;99.90;;;;;;5103657;27;20071;-83
2022/12/01 02:14:37;;;;;;;76.35;33.20;;;5.50;99.90;;;;;;5116572;27;20440;-83
2022/12/01 02:17:11;;;;;;;81.28;33.95;;;5.50;99.90;;;;;;5093306;28;20438;-82
2022/12/01 02:19:51;;;;;;;82.40;33.75;;;5.50;99.90;;;;;;5106654;27;20027;-82
2022/12/01 02:22:39;;;;;;;78.70;33.88;;;5.50;99.90;;;;;;5115931;27;20038;-83
2022/12/01 02:25:22;;;;;;;79.70;33.85;;;5.50;99.90;;;;;;5111641;27;20043;-82
2022/12/01 02:28:33;;;;;;;86.20;34.25;;;5.50;99.90;;;;;;5110597;27;20058;-81
2022/12/01 02:31:13;;;;;;;82.97;35.10;;;5.50;99.90;;;;;;5081467;28;20122;-82
2022/12/01 02:34:09;;;;;;;90.70;35.42;;;5.50;99.90;;;;;;5106139;28;20050;-82
2022/12/01 02:36:44;;;;;;;78.03;34.80;;;5.50;99.90;;;;;;5110365;27;20053;-82
2022/12/01 02:39:20;;;;;;;83.90;33.97;;;5.50;99.90;;;;;;5097353;27;20568;-82
2022/12/01 02:41:52;;;;;;;86.78;36.45;;;5.50;99.90;;;;;;5110518;28;20547;-82
2022/12/01 02:44:34;;;;;;;86.78;36.20;;;5.40;99.90;;;;;;5111346;27;20027;-83
2022/12/01 02:47:09;;;;;;;81.85;35.35;;;5.50;99.90;;;;;;5100785;28;20465;-82
2022/12/01 02:49:45;;;;;;;82.45;35.85;;;5.40;99.90;;;;;;5109146;27;20031;-83
2022/12/01 02:52:13;;;;;;;85.95;34.85;;;5.40;99.90;;;;;;5105172;27;20039;-82
2022/12/01 02:54:42;;;;;;;84.47;34.97;;;5.40;99.90;;;;;;5096627;27;20155;-82
2022/12/01 02:57:11;;;;;;;87.63;35.65;;;5.40;99.90;;;;;;5106259;27;20078;-81
2022/12/01 02:59:37;;;;;;;87.38;35.55;;;5.40;99.90;;;;;;5115574;27;20059;-82
2022/12/01 03:02:12;;;;;;;89.03;36.88;;;5.40;99.90;;;;;;5115635;27;20066;-83
2022/12/01 03:05:02;;;;;;;87.53;36.33;;;5.40;99.90;;;;;;5109248;28;20036;-83
2022/12/01 03:07:43;;;;;;;88.97;35.53;;;5.40;99.90;;;;;;5093218;27;20456;-81
2022/12/01 03:10:28;;;;;;;86.35;35.70;;;5.40;99.90;;;;;;5110777;27;20039;-82
2022/12/01 03:13:19;;;;;;;82.07;34.65;;;5.40;99.90;;;;;;5090381;27;20031;-82
2022/12/01 03:16:11;;;;;;;92.30;36.63;;;5.40;99.90;;;;;;5105076;27;20042;-83
2022/12/01 03:18:58;;;;;;;84.75;34.45;;;5.40;99.90;;;;;;5121422;27;20089;-82
2022/12/01 03:21:30;;;;;;;86.78;35.80;;;5.40;99.90;;;;;;5103331;27;20408;-83
2022/12/01 03:24:02;;;;;;;88.57;35.80;;;5.40;99.90;;;;;;5104351;27;20035;-83
2022/12/01 03:26:31;;;;;;;86.55;35.88;;;5.40;99.90;;;;;;5112977;27;20031;-82
2022/12/01 03:29:05;;;;;;;82.40;34.90;;;5.40;99.90;;;;;;5092690;27;20039;-83
2022/12/01 03:31:38;;;;;;;87.47;36.28;;;5.40;99.90;;;;;;5082846;27;20038;-82
2022/12/01 03:34:13;;;;;;;86.88;35.05;;;5.30;99.90;;;;;;5105688;28;20045;-83
2022/12/01 03:36:44;;;;;;;77.70;33.53;;;5.40;99.90;;;;;;5099774;27;20035;-83
2022/12/01 03:39:18;;;;;;;85.25;34.83;;;5.40;99.90;;;;;;5096769;27;20039;-83
2022/12/01 03:41:49;;;;;;;78.60;34.03;;;5.40;99.90;;;;;;5094761;27;20135;-82
2022/12/01 03:44:20;;;;;;;77.03;33.33;;;5.30;99.90;;;;;;5111423;27;20549;-82
2022/12/01 03:47:21;;;;;;;80.18;33.33;;;5.30;99.90;;;;;;5100055;27;20043;-82
2022/12/01 03:49:50;;;;;;;82.53;34.40;;;5.40;99.90;;;;;;5089653;27;20435;-82
2022/12/01 03:52:24;;;;;;;80.95;34.00;;;5.50;99.90;;;;;;5107620;27;20084;-82
2022/12/01 03:55:04;;;;;;;81.22;35.92;;;5.30;99.90;;;;;;5108581;27;20121;-82
2022/12/01 03:57:41;;;;;;;81.85;34.25;;;5.30;99.90;;;;;;5103037;27;20096;-82
2022/12/01 04:00:10;;;;;;;83.90;33.47;;;5.30;99.90;;;;;;5112769;28;20200;-82
2022/12/01 04:02:36;;;;;;;79.35;33.38;;;5.40;99.90;;;;;;5112143;27;20066;-82
2022/12/01 04:05:03;;;;;;;82.22;34.17;;;5.30;99.90;;;;;;5107151;28;20096;-82
2022/12/01 04:07:29;;;;;;;85.82;34.65;;;5.40;99.90;;;;;;5109933;28;20053;-82
2022/12/01 04:09:54;;;;;;;86.43;35.35;;;5.30;99.90;;;;;;5110017;28;20031;-83
2022/12/01 04:12:29;;;;;;;86.05;35.28;;;5.40;99.90;;;;;;5114016;28;20039;-82
2022/12/01 04:15:15;;;;;;;82.30;34.10;;;5.40;99.90;;;;;;5090080;28;20055;-82
2022/12/01 04:17:42;;;;;;;82.13;33.60;;;5.40;99.90;;;;;;5104947;28;20105;-82
2022/12/01 04:20:10;;;;;;;87.07;34.38;;;5.40;99.90;;;;;;5093029;28;20463;-83
2022/12/01 04:22:35;;;;;;;85.03;34.22;;;5.40;99.90;;;;;;5105352;28;20039;-82
2022/12/01 04:25:02;;;;;;;80.32;34.50;;;5.40;99.90;;;;;;5110275;28;20092;-82
2022/12/01 04:27:27;;;;;;;84.18;34.20;;;5.40;99.90;;;;;;5112326;28;20039;-82
2022/12/01 04:29:53;;;;;;;83.80;33.95;;;5.40;99.90;;;;;;5116466;27;20526;-82
2022/12/01 04:32:19;;;;;;;78.28;32.25;;;5.40;99.90;;;;;;5114082;27;20039;-82
2022/12/01 04:34:44;;;;;;;77.18;32.95;;;5.40;99.90;;;;;;5108384;27;20116;-82
2022/12/01 04:37:11;;;;;;;79.10;34.00;;;5.40;99.90;;;;;;5100034;27;20104;-83
2022/12/01 04:39:36;;;;;;;84.65;34.35;;;5.40;99.90;;;;;;5112377;27;20628;-82
2022/12/01 04:42:02;;;;;;;93.25;34.63;;;5.40;99.90;;;;;;5114202;27;20400;-83
2022/12/01 04:44:27;;;;;;;85.03;35.70;;;5.40;99.90;;;;;;5112208;27;20110;-82
2022/12/01 04:46:53;;;;;;;83.85;33.65;;;5.40;99.90;;;;;;5110305;27;20071;-82
2022/12/01 04:49:20;;;;;;;75.22;32.22;;;5.40;99.90;;;;;;5088142;27;20039;-82
2022/12/01 04:51:46;;;;;;;79.40;32.55;;;5.40;99.90;;;;;;5108378;28;20039;-82
2022/12/01 04:54:11;;;;;;;79.28;33.33;;;5.40;99.90;;;;;;5104426;27;20043;-82
2022/12/01 04:56:37;;;;;;;78.65;31.25;;;5.40;99.90;;;;;;5097038;27;20049;-83
2022/12/01 04:59:03;;;;;;;79.13;32.58;;;5.40;99.90;;;;;;5110604;28;20058;-82
2022/12/01 05:01:28;;;;;;;76.45;31.77;;;5.40;99.90;;;;;;5107037;27;20561;-82
2022/12/01 05:03:54;;;;;;;82.65;33.85;;;5.40;99.90;;;;;;5104555;28;20034;-82
2022/12/01 05:06:22;;;;;;;75.82;31.75;;;5.40;99.90;;;;;;5098896;27;20118;-82
2022/12/01 05:08:48;;;;;;;80.00;33.17;;;5.40;99.90;;;;;;5115620;27;20070;-82
2022/12/01 05:11:14;;;;;;;82.25;34.40;;;5.30;99.90;;;;;;5083922;27;20047;-81
2022/12/01 05:13:42;;;;;;;74.28;31.30;;;5.40;99.90;;;;;;5112048;27;20060;-82
2022/12/01 05:16:26;;;;;;;77.22;31.40;;;5.30;99.90;;;;;;5111080;27;20039;-82
2022/12/01 05:20:55;;;;;;;72.10;31.75;;;5.30;99.90;;;;;;5110425;27;20095;-81
2022/12/01 05:21:41;;;;;;;72.30;30.02;;;5.30;99.90;;;;;;5112500;27;20062;-82
2022/12/01 05:24:07;;;;;;;80.70;32.58;;;5.30;99.90;;;;;;5106048;27;20039;-82
2022/12/01 05:26:33;;;;;;;77.22;33.28;;;5.40;99.90;;;;;;5105845;27;20038;-82
2022/12/01 05:28:58;;;;;;;79.65;33.47;;;5.10;99.90;;;;;;5111919;28;20442;-82
2022/12/01 05:31:24;;;;;;;76.15;32.40;;;5.10;99.90;;;;;;5101798;27;20043;-82
2022/12/01 05:33:49;;;;;;;72.15;31.85;;;5.00;99.90;;;;;;5104970;27;20049;-82
2022/12/01 05:36:15;;;;;;;75.03;31.95;;;4.90;99.90;;;;;;5108428;27;20032;-82
2022/12/01 05:38:40;;;;;;;71.88;31.55;;;4.90;99.90;;;;;;5124493;27;20042;-82
2022/12/01 05:41:06;;;;;;;68.32;29.35;;;4.80;99.90;;;;;;5091636;27;20123;-79
2022/12/01 05:43:31;;;;;;;75.72;30.77;;;4.60;99.90;;;;;;5111075;27;20046;-82
2022/12/01 05:45:57;;;;;;;70.53;30.63;;;4.50;99.90;;;;;;5111225;27;20057;-82
2022/12/01 05:48:23;;;;;;;74.85;31.25;;;4.40;99.90;;;;;;5111222;27;20511;-82
2022/12/01 05:50:49;;;;;;;75.35;30.23;;;4.40;99.90;;;;;;5113552;27;20504;-83
2022/12/01 05:53:16;;;;;;;63.00;29.20;;;4.30;99.90;;;;;;5106541;27;20262;-82
2022/12/01 05:55:41;;;;;;;69.97;29.17;;;4.20;99.90;;;;;;5092918;27;20042;-82
2022/12/01 05:58:07;;;;;;;72.38;29.52;;;4.00;99.90;;;;;;5127867;27;20035;-82
2022/12/01 06:00:33;;;;;;;73.20;31.60;;;4.00;99.90;;;;;;5103388;27;20524;-82
2022/12/01 06:02:58;;;;;;;75.95;30.92;;;3.90;99.90;;;;;;5115433;27;20038;-82
2022/12/01 06:05:24;;;;;;;62.97;28.77;;;3.80;99.90;;;;;;5087624;27;20864;-82
2022/12/01 06:07:49;;;;;;;67.55;29.45;;;3.80;99.90;;;;;;5105208;27;20043;-82
2022/12/01 06:10:15;;;;;;;67.75;29.85;;;3.80;99.90;;;;;;5100712;27;20489;-82
2022/12/01 06:12:41;;;;;;;71.88;29.90;;;3.70;99.90;;;;;;5104400;27;20047;-82
2022/12/01 06:15:07;;;;;;;65.28;28.05;;;3.70;99.90;;;;;;5113879;27;20403;-79
2022/12/01 06:17:33;;;;;;;65.22;28.42;;;3.60;99.90;;;;;;5104081;27;20502;-82
2022/12/01 06:19:58;;;;;;;54.00;23.58;;;3.60;99.90;;;;;;5108530;27;20038;-82
2022/12/01 06:22:24;;;;;;;51.63;22.77;;;3.50;99.90;;;;;;5104905;27;20496;-81
2022/12/01 06:24:50;;;;;;;65.38;22.10;;;3.40;99.90;;;;;;5106404;28;20036;-81
2022/12/01 06:27:15;;;;;;;55.80;21.13;;;3.40;99.90;;;;;;5103896;27;20038;-82
2022/12/01 06:29:41;;;;;;;62.28;24.55;;;3.30;99.90;;;;;;5098830;27;20030;-82
2022/12/01 06:32:06;;;;;;;58.35;24.42;;;3.30;99.90;;;;;;5080779;28;20032;-82
2022/12/01 06:34:32;;;;;;;55.10;25.30;;;3.20;99.90;;;;;;5098640;28;20023;-81
2022/12/01 06:36:57;;;;;;;63.22;26.33;;;3.20;99.90;;;;;;5098757;28;20454;-82
2022/12/01 06:39:23;;;;;;;62.10;25.63;;;3.20;99.90;;;;;;5100732;28;20455;-82
2022/12/01 06:41:48;;;;;;;56.55;26.40;;;3.10;99.90;;;;;;5108026;28;20390;-81
2022/12/01 06:44:14;;;;;;;83.00;24.73;;;3.10;99.90;;;;;;5080548;28;20031;-81
2022/12/01 06:46:40;;;;;;;48.30;22.98;;;3.10;99.90;;;;;;5099460;28;20123;-83
2022/12/01 06:49:05;;;;;;;61.47;26.33;;;3.00;99.90;;;;;;5083047;28;20539;-82
2022/12/01 06:51:33;;;;;;;60.58;25.70;;;3.10;99.90;;;;;;5091391;28;20046;-82
2022/12/01 06:53:58;;;;;;;55.22;24.20;;;3.00;99.90;;;;;;5107474;27;20039;-79
2022/12/01 06:56:24;;;;;;;55.65;25.15;;;3.00;99.90;;;;;;5108436;27;20121;-82
2022/12/01 06:58:51;;;;;;;52.42;23.13;;;3.00;99.90;;;;;;5134869;27;20055;-82
2022/12/01 07:01:17;;;;;;;83.00;23.65;;;3.00;99.90;;;;;;5118006;27;20031;-81
2022/12/01 07:03:46;;;;;;;76.53;25.58;;;3.00;99.90;;;;;;5091616;28;20087;-81
2022/12/01 07:06:12;;;;;;;67.43;25.17;;;2.90;99.90;;;;;;5085872;27;20046;-82
2022/12/01 07:08:37;;;;;;;58.63;25.05;;;3.30;99.90;;;;;;5128508;27;20036;-80
2022/12/01 07:11:06;;;;;;;58.53;23.80;;;2.80;99.90;;;;;;5136855;27;20031;-80
2022/12/01 07:13:32;;;;;;;69.20;25.67;;;3.40;99.90;;;;;;5138612;27;20043;-81
2022/12/01 07:15:58;;;;;;;79.20;25.60;;;2.80;99.90;;;;;;5116417;28;20046;-81
2022/12/01 07:18:23;;;;;;;69.38;25.17;;;2.80;99.90;;;;;;5118468;27;20416;-81
2022/12/01 07:20:49;;;;;;;178.75;27.73;;;3.00;99.90;;;;;;5123768;27;20099;-81
2022/12/01 07:23:15;;;;;;;373.60;31.27;;;3.00;99.90;;;;;;5129312;27;20036;-82
2022/12/01 07:25:40;;;;;;;320.90;27.60;;;2.90;99.90;;;;;;5106240;28;20100;-81
2022/12/01 07:28:06;;;;;;;381.60;26.30;;;2.70;99.90;;;;;;5102370;27;20051;-81
2022/12/01 07:30:32;;;;;;;320.33;24.98;;;2.60;99.90;;;;;;5117237;28;20051;-80
2022/12/01 07:32:58;;;;;;;301.20;23.70;;;2.60;99.90;;;;;;5110009;27;20042;-81
2022/12/01 07:35:24;;;;;;;255.25;22.20;;;2.50;99.90;;;;;;5120124;27;20126;-81
2022/12/01 07:37:56;;;;;;;214.63;21.45;;;2.40;99.90;;;;;;5102123;27;20089;-81
2022/12/01 07:40:22;;;;;;;214.23;21.05;;;2.40;99.90;;;;;;5111064;27;20037;-80
2022/12/01 07:42:48;;;;;;;149.07;18.00;;;2.30;99.90;;;;;;5114446;27;20032;-80
2022/12/01 07:45:13;;;;;;;157.75;17.33;;;2.30;99.90;;;;;;5111281;27;20035;-81
2022/12/01 07:47:39;;;;;;;148.57;16.65;;;2.20;99.90;;;;;;5098838;27;20041;-81
2022/12/01 07:50:05;;;;;;;109.22;15.60;;;2.20;99.90;;;;;;5116090;28;20069;-81
2022/12/01 07:52:31;;;;;;;81.78;14.85;;;2.10;99.90;;;;;;5114475;27;20266;-81
2022/12/01 07:54:56;;;;;;;67.97;14.65;;;2.00;99.90;;;;;;5118182;28;20043;-79
2022/12/01 07:57:22;;;;;;;51.80;14.23;;;2.00;99.90;;;;;;5107443;28;20153;-82
2022/12/01 07:59:48;;;;;;;33.70;13.77;;;2.00;99.90;;;;;;5102281;27;20053;-81
2022/12/01 08:02:13;;;;;;;28.10;14.27;;;2.00;99.90;;;;;;5110596;27;20037;-81
2022/12/01 08:04:39;;;;;;;20.65;14.00;;;2.00;99.90;;;;;;5101854;28;20066;-80
2022/12/01 08:07:05;;;;;;;22.50;13.63;;;2.10;99.90;;;;;;5100256;28;20110;-81
2022/12/01 08:09:30;;;;;;;22.08;13.55;;;2.10;99.90;;;;;;5103371;28;20043;-81
2022/12/01 08:11:55;;;;;;;21.77;13.52;;;2.10;99.90;;;;;;5092821;28;20032;-81
2022/12/01 08:14:21;;;;;;;19.75;13.10;;;2.10;99.90;;;;;;5091035;28;20040;-80
2022/12/01 08:16:47;;;;;;;20.58;12.68;;;2.10;99.90;;;;;;5104715;28;20039;-81
2022/12/01 08:19:13;;;;;;;17.08;11.45;;;2.20;99.90;;;;;;5107630;28;20122;-82
2022/12/01 08:21:39;;;;;;;20.38;12.93;;;2.20;99.90;;;;;;5108755;28;20062;-82
2022/12/01 08:24:04;;;;;;;23.88;13.93;;;2.30;99.90;;;;;;5098688;28;20040;-82
2022/12/01 08:26:30;;;;;;;19.98;12.48;;;2.30;99.90;;;;;;5105817;28;20035;-82
2022/12/01 08:28:56;;;;;;;22.45;13.00;;;2.30;99.90;;;;;;5104745;28;20408;-81
2022/12/01 08:31:30;;;;;;;24.15;14.60;;;2.30;99.90;;;;;;5101121;28;20039;-82
2022/12/01 08:33:57;;;;;;;21.63;13.68;;;2.40;99.90;;;;;;5109289;28;20050;-82
2022/12/01 08:36:23;;;;;;;23.00;13.30;;;2.40;99.90;;;;;;5100972;28;20040;-81
2022/12/01 08:38:52;;;;;;;24.48;13.27;;;2.40;99.90;;;;;;5109299;28;20408;-81
2022/12/01 08:41:18;;;;;;;20.88;12.88;;;2.50;99.90;;;;;;5111357;28;20039;-81
2022/12/01 08:43:43;;;;;;;22.42;13.50;;;2.50;99.90;;;;;;5111838;28;20707;-82
2022/12/01 08:46:13;;;;;;;21.80;12.75;;;2.50;99.90;;;;;;5101112;28;20490;-82
2022/12/01 08:48:39;;;;;;;27.42;14.32;;;2.50;99.90;;;;;;5098695;28;20031;-82
2022/12/01 08:51:06;;;;;;;23.40;13.82;;;2.60;99.90;;;;;;5109794;28;20085;-82
2022/12/01 08:53:33;;;;;;;21.27;13.00;;;2.60;99.90;;;;;;5095723;28;20118;-82
2022/12/01 08:56:10;;;;;;;22.15;12.75;;;2.70;99.90;;;;;;5105168;28;20039;-81
2022/12/01 08:58:36;;;;;;;21.67;13.20;;;2.80;99.90;;;;;;5110370;28;20027;-82
2022/12/01 09:01:07;;;;;;;23.88;13.10;;;2.80;99.90;;;;;;5110360;28;20441;-80
2022/12/01 09:03:34;;;;;;;22.63;14.35;;;2.80;99.90;;;;;;5123130;28;20065;-80
2022/12/01 09:06:05;;;;;;;22.83;12.48;;;2.90;99.90;;;;;;5113337;28;20092;-82
2022/12/01 09:08:31;;;;;;;26.08;13.85;;;3.00;99.90;;;;;;5097927;28;20058;-82
2022/12/01 09:10:57;;;;;;;25.00;13.50;;;3.00;99.90;;;;;;5105559;28;20051;-82
2022/12/01 09:13:23;;;;;;;23.10;13.32;;;3.00;99.90;;;;;;5114748;28;20059;-78
2022/12/01 09:16:04;;;;;;;25.80;14.23;;;3.10;99.90;;;;;;5087497;27;20442;-78
2022/12/01 09:18:30;;;;;;;25.33;14.60;;;3.10;99.90;;;;;;5112347;27;20039;-82
2022/12/01 09:20:56;;;;;;;26.52;14.75;;;3.10;99.90;;;;;;5103919;28;20043;-81
2022/12/01 09:23:23;;;;;;;27.45;15.23;;;3.20;99.90;;;;;;5105043;27;20043;-82
2022/12/01 09:25:49;;;;;;;32.33;16.00;;;3.20;99.90;;;;;;5116282;28;20040;-81
2022/12/01 09:28:16;;;;;;;26.02;15.00;;;3.30;99.90;;;;;;5112555;27;20509;-81
2022/12/01 09:30:43;;;;;;;24.80;14.63;;;3.30;99.90;;;;;;5086118;28;20032;-81
2022/12/01 09:33:09;;;;;;;26.80;15.02;;;3.40;99.90;;;;;;5114410;27;20062;-81
2022/12/01 09:35:34;;;;;;;29.23;15.93;;;3.40;99.90;;;;;;5116438;27;20027;-81
2022/12/01 09:38:00;;;;;;;25.38;15.05;;;3.50;99.90;;;;;;5115966;28;20405;-78
2022/12/01 09:40:41;;;;;;;24.33;14.63;;;3.60;99.90;;;;;;5110109;27;20039;-81
2022/12/01 09:43:16;;;;;;;26.55;13.95;;;3.60;99.90;;;;;;5089347;27;20047;-81
2022/12/01 09:45:46;;;;;;;25.35;15.55;;;3.70;99.90;;;;;;5112498;27;20031;-78
2022/12/01 09:48:28;;;;;;;24.58;14.45;;;3.70;99.90;;;;;;5108109;27;20040;-81
2022/12/01 09:50:54;;;;;;;25.15;13.85;;;3.80;99.90;;;;;;5115341;27;20121;-81
2022/12/01 09:53:23;;;;;;;25.67;14.52;;;3.90;99.90;;;;;;5095303;27;20042;-81
2022/12/01 09:55:49;;;;;;;24.23;14.18;;;4.00;99.90;;;;;;5113747;27;20031;-81
2022/12/01 09:58:19;;;;;;;23.95;14.65;;;4.10;99.90;;;;;;5102333;27;20492;-81
2022/12/01 10:00:47;;;;;;;26.42;13.90;;;4.10;99.90;;;;;;5115253;28;20054;-82
2022/12/01 10:03:27;;;;;;;24.05;14.02;;;4.20;99.90;;;;;;5119631;27;20043;-82
2022/12/01 10:05:57;;;;;;;25.15;14.60;;;4.30;99.90;;;;;;5119075;27;20046;-81
2022/12/01 10:08:29;;;;;;;24.90;13.52;;;4.30;99.90;;;;;;5096976;27;20385;-81
2022/12/01 10:11:01;;;;;;;25.75;14.20;;;4.40;99.90;;;;;;5120031;27;20484;-81
2022/12/01 10:13:27;;;;;;;24.75;14.43;;;4.40;99.90;;;;;;5114561;27;20059;-81
2022/12/01 10:15:53;;;;;;;25.80;15.02;;;4.50;99.90;;;;;;5105979;28;20060;-80
2022/12/01 10:18:54;;;;;;;29.27;15.95;;;4.50;99.90;;;;;;5105083;27;20048;-81
2022/12/01 10:21:57;;;;;;;32.30;16.45;;;4.60;99.90;;;;;;5129448;27;20077;-79
2022/12/01 10:24:32;;;;;;;28.02;16.00;;;4.70;99.90;;;;;;5140055;27;20094;-80
2022/12/01 10:27:21;;;;;;;31.27;17.13;;;4.80;99.90;;;;;;5117731;27;20046;-79
2022/12/01 10:29:57;;;;;;;30.90;16.98;;;4.90;99.90;;;;;;5089068;27;20039;-81
2022/12/01 10:32:32;;;;;;;34.15;17.90;;;4.90;99.90;;;;;;5116881;27;20562;-80
2022/12/01 10:34:57;;;;;;;32.42;17.92;;;4.90;99.90;;;;;;5119615;27;20127;-81
2022/12/01 10:37:29;;;;;;;43.38;20.05;;;4.90;99.90;;;;;;5111226;27;20027;-79
2022/12/01 10:39:56;;;;;;;39.55;20.85;;;5.10;99.90;;;;;;5117100;27;20510;-80
2022/12/01 10:42:33;;;;;;;38.58;20.75;;;5.20;99.90;;;;;;5112044;27;20035;-80
2022/12/01 10:45:01;;;;;;;46.45;22.67;;;5.30;99.90;;;;;;5109034;27;20042;-80
2022/12/01 10:47:27;;;;;;;49.25;23.02;;;5.30;99.90;;;;;;5112184;27;20480;-78
2022/12/01 10:49:54;;;;;;;46.63;22.05;;;5.40;99.90;;;;;;5099464;28;20043;-81
2022/12/01 10:52:39;;;;;;;45.83;22.58;;;5.50;99.90;;;;;;5113401;27;20042;-81
2022/12/01 10:55:26;;;;;;;42.83;21.98;;;5.60;99.90;;;;;;5106552;28;20062;-82
2022/12/01 10:57:55;;;;;;;51.50;23.77;;;5.70;99.90;;;;;;5091721;27;20442;-80
2022/12/01 11:00:23;;;;;;;49.42;24.50;;;5.70;99.90;;;;;;5117219;27;20042;-80
2022/12/01 11:02:49;;;;;;;47.45;24.27;;;5.80;99.90;;;;;;5106199;27;20039;-81
2022/12/01 11:05:23;;;;;;;51.65;26.17;;;5.90;99.90;;;;;;5110286;27;20059;-81
2022/12/01 11:07:50;;;;;;;53.25;25.65;;;5.90;99.90;;;;;;5114444;28;20120;-80
2022/12/01 11:10:20;;;;;;;54.83;24.85;;;5.90;99.90;;;;;;5107162;27;20043;-81
2022/12/01 11:12:55;;;;;;;48.58;23.33;;;5.90;99.90;;;;;;5104050;27;20053;-81
2022/12/01 11:15:24;;;;;;;53.80;24.98;;;5.90;99.90;;;;;;5114378;27;20488;-81
2022/12/01 11:18:04;;;;;;;50.40;23.60;;;5.80;99.90;;;;;;5116006;27;20039;-80
2022/12/01 11:20:39;;;;;;;49.50;24.45;;;5.70;99.90;;;;;;5101856;27;20027;-81
2022/12/01 11:23:25;;;;;;;49.28;24.08;;;5.60;99.90;;;;;;5120143;27;20071;-80
2022/12/01 11:26:13;;;;;;;48.53;23.17;;;5.60;99.90;;;;;;5081939;28;20032;-80
2022/12/01 11:28:51;;;;;;;49.47;23.98;;;5.70;99.90;;;;;;5104158;27;20050;-80
2022/12/01 11:31:18;;;;;;;47.13;23.95;;;5.60;99.90;;;;;;5110195;27;20049;-81
2022/12/01 11:33:55;;;;;;;54.35;25.10;;;5.70;99.90;;;;;;5109659;27;20058;-80
2022/12/01 11:36:42;;;;;;;52.50;25.05;;;5.80;99.90;;;;;;5113907;27;20216;-80
2022/12/01 11:39:31;;;;;;;56.97;25.40;;;5.90;99.90;;;;;;5112549;27;20035;-81
2022/12/01 11:42:27;;;;;;;49.95;24.08;;;6.00;99.90;;;;;;5101146;28;20035;-81
2022/12/01 11:45:21;;;;;;;51.25;25.20;;;6.00;99.90;;;;;;5112458;27;20051;-81
2022/12/01 11:48:16;;;;;;;55.38;25.02;;;6.10;99.90;;;;;;5095308;27;20039;-81
2022/12/01 11:50:44;;;;;;;54.08;25.70;;;6.20;99.90;;;;;;5098773;27;20042;-81
2022/12/01 11:53:30;;;;;;;50.90;25.45;;;6.30;99.90;;;;;;5114853;27;20054;-81
2022/12/01 11:56:16;;;;;;;53.75;25.33;;;6.30;99.90;;;;;;5115063;27;20045;-81
2022/12/01 11:58:44;;;;;;;48.90;24.08;;;6.40;99.90;;;;;;5111799;27;20050;-81
2022/12/01 12:01:34;;;;;;;49.38;23.63;;;6.50;99.90;;;;;;5114332;27;20045;-81
2022/12/01 12:04:11;;;;;;;45.25;22.27;;;6.50;99.90;;;;;;5112692;28;20050;-81
2022/12/01 12:07:04;;;;;;;44.38;23.05;;;6.60;99.90;;;;;;5108934;27;20039;-81
2022/12/01 12:10:07;;;;;;;46.53;23.55;;;6.70;99.90;;;;;;5108514;27;20062;-81
2022/12/01 12:13:12;;;;;;;49.33;23.58;;;6.70;99.90;;;;;;5112261;28;20031;-80
2022/12/01 12:16:01;;;;;;;;;;;6.80;99.90;;;;;;5093945;28;20400;-81
2022/12/01 12:18:50;;;;;;;46.85;23.00;;;6.90;99.90;;;;;;5051853;28;20383;-81
2022/12/01 12:21:16;;;;;;;44.08;21.75;;;6.80;99.90;;;;;;5084686;28;20047;-81
2022/12/01 12:24:00;;;;;;;48.70;24.58;;;6.80;99.90;;;;;;5101835;28;20231;-82
2022/12/01 12:26:41;;;;;;;45.92;22.60;;;6.80;99.90;;;;;;5096414;28;20492;-82
2022/12/01 12:29:31;;;;;;;46.95;24.13;;;6.90;99.90;;;;;;5097361;28;20043;-81
2022/12/01 12:32:15;;;;;;;49.22;24.83;;;7.00;99.90;;;;;;5119817;28;20083;-81
2022/12/01 12:34:59;;;;;;;49.42;24.50;;;7.20;99.90;;;;;;5111833;27;20046;-80
2022/12/01 12:37:28;;;;;;;;;;;7.30;99.90;;;;;;5115989;28;20495;-81
2022/12/01 12:40:19;;;;;;;47.00;22.83;;;7.40;99.90;;;;;;5100924;28;19916;-81
2022/12/01 12:43:00;;;;;;;45.25;23.30;;;7.50;99.90;;;;;;5097714;28;20042;-82
2022/12/01 12:45:59;;;;;;;47.25;23.95;;;7.70;99.90;;;;;;5098724;28;20405;-81
2022/12/01 12:48:51;;;;;;;45.53;23.80;;;7.80;99.90;;;;;;5097349;28;20035;-81
2022/12/01 12:51:39;;;;;;;45.83;23.70;;;7.60;99.90;;;;;;5100118;28;20064;-81
2022/12/01 12:54:11;;;;;;;48.97;23.70;;;7.50;99.90;;;;;;5102614;28;20066;-81
2022/12/01 12:56:39;;;;;;;49.22;24.83;;;7.40;99.90;;;;;;5102199;28;20039;-82
2022/12/01 12:59:28;;;;;;;46.22;24.88;;;7.30;99.90;;;;;;5101725;28;20457;-82